sensor_id;sensor_type;location;lat;lon;timestamp;P1;durP1;ratioP1;P2;durP2;ratioP2
16822;SDS011;8528;49.976;11.858;2022-08-19T00:02:25;16.17;;;13.87;;
16822;SDS011;8528;49.976;11.858;2022-08-19T00:05:01;16.27;;;14.67;;
16822;SDS011;8528;49.976;11.858;2022-08-19T00:07:30;18.00;;;14.63;;
16822;SDS011;8528;49.976;11.858;2022-08-19T00:09:59;16.80;;;15.00;;
16822;SDS011;8528;49.976;11.858;2022-08-19T00:12:29;16.10;;;14.33;;
16822;SDS011;8528;49.976;11.858;2022-08-19T00:14:56;18.63;;;15.63;;
16822;SDS011;8528;49.976;11.858;2022-08-19T00:17:26;16.77;;;14.63;;
16822;SDS011;8528;49.976;11.858;2022-08-19T00:19:56;15.43;;;13.83;;
16822;SDS011;8528;49.976;11.858;2022-08-19T00:22:27;16.77;;;15.07;;
16822;SDS011;8528;49.976;11.858;2022-08-19T00:24:57;15.37;;;13.83;;
16822;SDS011;8528;49.976;11.858;2022-08-19T00:27:27;16.17;;;14.47;;
16822;SDS011;8528;49.976;11.858;2022-08-19T00:29:57;16.23;;;14.53;;
16822;SDS011;8528;49.976;11.858;2022-08-19T00:32:28;18.00;;;16.10;;
16822;SDS011;8528;49.976;11.858;2022-08-19T00:34:55;17.17;;;15.27;;
16822;SDS011;8528;49.976;11.858;2022-08-19T00:37:25;17.33;;;14.87;;
16822;SDS011;8528;49.976;11.858;2022-08-19T00:39:53;18.43;;;15.07;;
16822;SDS011;8528;49.976;11.858;2022-08-19T00:42:22;18.60;;;15.33;;
16822;SDS011;8528;49.976;11.858;2022-08-19T00:44:51;19.13;;;16.67;;
16822;SDS011;8528;49.976;11.858;2022-08-19T00:47:18;18.90;;;15.90;;
16822;SDS011;8528;49.976;11.858;2022-08-19T00:49:53;18.47;;;15.80;;
16822;SDS011;8528;49.976;11.858;2022-08-19T00:52:24;17.77;;;15.80;;
16822;SDS011;8528;49.976;11.858;2022-08-19T00:54:59;22.87;;;19.23;;
16822;SDS011;8528;49.976;11.858;2022-08-19T00:57:35;19.80;;;15.97;;
16822;SDS011;8528;49.976;11.858;2022-08-19T01:00:10;21.43;;;17.73;;
16822;SDS011;8528;49.976;11.858;2022-08-19T01:02:40;21.23;;;17.10;;
16822;SDS011;8528;49.976;11.858;2022-08-19T01:05:09;22.57;;;18.30;;
16822;SDS011;8528;49.976;11.858;2022-08-19T01:07:45;21.13;;;17.00;;
16822;SDS011;8528;49.976;11.858;2022-08-19T01:10:18;19.67;;;16.50;;
16822;SDS011;8528;49.976;11.858;2022-08-19T01:12:50;20.27;;;17.57;;
16822;SDS011;8528;49.976;11.858;2022-08-19T01:15:20;22.33;;;17.57;;
16822;SDS011;8528;49.976;11.858;2022-08-19T01:17:50;21.63;;;17.80;;
16822;SDS011;8528;49.976;11.858;2022-08-19T01:20:20;20.10;;;16.20;;
16822;SDS011;8528;49.976;11.858;2022-08-19T01:22:50;17.83;;;15.47;;
16822;SDS011;8528;49.976;11.858;2022-08-19T01:25:21;17.03;;;15.27;;
16822;SDS011;8528;49.976;11.858;2022-08-19T01:27:54;17.87;;;15.47;;
16822;SDS011;8528;49.976;11.858;2022-08-19T01:30:29;19.87;;;16.90;;
16822;SDS011;8528;49.976;11.858;2022-08-19T01:33:03;17.27;;;15.13;;
16822;SDS011;8528;49.976;11.858;2022-08-19T01:35:32;18.70;;;16.27;;
16822;SDS011;8528;49.976;11.858;2022-08-19T01:38:03;17.03;;;14.83;;
16822;SDS011;8528;49.976;11.858;2022-08-19T01:40:38;18.33;;;15.40;;
16822;SDS011;8528;49.976;11.858;2022-08-19T01:43:06;34.30;;;22.77;;
16822;SDS011;8528;49.976;11.858;2022-08-19T01:45:36;21.27;;;17.43;;
16822;SDS011;8528;49.976;11.858;2022-08-19T01:48:07;17.67;;;15.83;;
16822;SDS011;8528;49.976;11.858;2022-08-19T01:50:35;16.83;;;15.10;;
16822;SDS011;8528;49.976;11.858;2022-08-19T01:53:03;16.67;;;14.97;;
16822;SDS011;8528;49.976;11.858;2022-08-19T01:55:34;17.97;;;15.30;;
16822;SDS011;8528;49.976;11.858;2022-08-19T01:58:07;16.37;;;14.67;;
16822;SDS011;8528;49.976;11.858;2022-08-19T02:00:48;17.13;;;14.30;;
16822;SDS011;8528;49.976;11.858;2022-08-19T02:03:16;15.50;;;13.90;;
16822;SDS011;8528;49.976;11.858;2022-08-19T02:05:46;15.67;;;13.87;;
16822;SDS011;8528;49.976;11.858;2022-08-19T02:08:13;14.70;;;12.73;;
16822;SDS011;8528;49.976;11.858;2022-08-19T02:10:41;15.70;;;14.07;;
16822;SDS011;8528;49.976;11.858;2022-08-19T02:13:12;15.53;;;13.93;;
16822;SDS011;8528;49.976;11.858;2022-08-19T02:15:40;15.70;;;14.10;;
16822;SDS011;8528;49.976;11.858;2022-08-19T02:18:07;14.93;;;13.40;;
16822;SDS011;8528;49.976;11.858;2022-08-19T02:20:34;14.33;;;12.83;;
16822;SDS011;8528;49.976;11.858;2022-08-19T02:23:02;15.73;;;14.10;;
16822;SDS011;8528;49.976;11.858;2022-08-19T02:25:32;15.10;;;13.50;;
16822;SDS011;8528;49.976;11.858;2022-08-19T02:27:59;14.70;;;13.20;;
16822;SDS011;8528;49.976;11.858;2022-08-19T02:30:30;15.53;;;14.00;;
16822;SDS011;8528;49.976;11.858;2022-08-19T02:33:04;15.60;;;13.90;;
16822;SDS011;8528;49.976;11.858;2022-08-19T02:35:31;15.57;;;13.87;;
16822;SDS011;8528;49.976;11.858;2022-08-19T02:37:59;16.80;;;15.10;;
16822;SDS011;8528;49.976;11.858;2022-08-19T02:40:49;15.93;;;14.30;;
16822;SDS011;8528;49.976;11.858;2022-08-19T02:43:24;16.50;;;14.80;;
16822;SDS011;8528;49.976;11.858;2022-08-19T02:46:22;15.60;;;14.00;;
16822;SDS011;8528;49.976;11.858;2022-08-19T02:48:51;15.73;;;14.07;;
16822;SDS011;8528;49.976;11.858;2022-08-19T02:51:21;15.97;;;14.33;;
16822;SDS011;8528;49.976;11.858;2022-08-19T02:53:53;16.40;;;14.67;;
16822;SDS011;8528;49.976;11.858;2022-08-19T02:56:23;14.80;;;13.30;;
16822;SDS011;8528;49.976;11.858;2022-08-19T02:58:54;14.50;;;13.07;;
16822;SDS011;8528;49.976;11.858;2022-08-19T03:01:29;18.40;;;14.30;;
16822;SDS011;8528;49.976;11.858;2022-08-19T03:04:07;15.97;;;14.27;;
16822;SDS011;8528;49.976;11.858;2022-08-19T03:06:36;16.83;;;14.83;;
16822;SDS011;8528;49.976;11.858;2022-08-19T03:09:04;18.27;;;15.63;;
16822;SDS011;8528;49.976;11.858;2022-08-19T03:11:32;17.73;;;15.40;;
16822;SDS011;8528;49.976;11.858;2022-08-19T03:13:59;22.10;;;16.13;;
16822;SDS011;8528;49.976;11.858;2022-08-19T03:16:32;19.27;;;15.27;;
16822;SDS011;8528;49.976;11.858;2022-08-19T03:19:05;19.57;;;15.23;;
16822;SDS011;8528;49.976;11.858;2022-08-19T03:21:33;21.00;;;16.37;;
16822;SDS011;8528;49.976;11.858;2022-08-19T03:24:03;21.03;;;17.70;;
16822;SDS011;8528;49.976;11.858;2022-08-19T03:26:40;23.73;;;16.37;;
16822;SDS011;8528;49.976;11.858;2022-08-19T03:29:08;20.77;;;15.83;;
16822;SDS011;8528;49.976;11.858;2022-08-19T03:31:56;20.30;;;16.70;;
16822;SDS011;8528;49.976;11.858;2022-08-19T03:34:30;25.00;;;16.97;;
16822;SDS011;8528;49.976;11.858;2022-08-19T03:37:02;21.77;;;16.50;;
16822;SDS011;8528;49.976;11.858;2022-08-19T03:39:36;23.20;;;16.57;;
16822;SDS011;8528;49.976;11.858;2022-08-19T03:42:04;23.20;;;16.13;;
16822;SDS011;8528;49.976;11.858;2022-08-19T03:44:51;23.77;;;16.70;;
16822;SDS011;8528;49.976;11.858;2022-08-19T03:47:21;23.83;;;16.67;;
16822;SDS011;8528;49.976;11.858;2022-08-19T03:49:48;21.63;;;15.97;;
16822;SDS011;8528;49.976;11.858;2022-08-19T03:52:15;21.57;;;16.97;;
16822;SDS011;8528;49.976;11.858;2022-08-19T03:54:48;21.73;;;15.77;;
16822;SDS011;8528;49.976;11.858;2022-08-19T03:57:15;21.70;;;15.17;;
16822;SDS011;8528;49.976;11.858;2022-08-19T03:59:42;20.00;;;14.73;;
16822;SDS011;8528;49.976;11.858;2022-08-19T04:02:10;22.80;;;16.43;;
16822;SDS011;8528;49.976;11.858;2022-08-19T04:04:38;22.07;;;15.63;;
16822;SDS011;8528;49.976;11.858;2022-08-19T04:07:10;22.07;;;15.87;;
16822;SDS011;8528;49.976;11.858;2022-08-19T04:09:42;20.10;;;14.33;;
16822;SDS011;8528;49.976;11.858;2022-08-19T04:12:13;20.23;;;14.53;;
16822;SDS011;8528;49.976;11.858;2022-08-19T04:14:41;20.53;;;15.37;;
16822;SDS011;8528;49.976;11.858;2022-08-19T04:17:08;19.43;;;13.87;;
16822;SDS011;8528;49.976;11.858;2022-08-19T04:19:44;21.50;;;14.97;;
16822;SDS011;8528;49.976;11.858;2022-08-19T04:22:11;23.17;;;14.50;;
16822;SDS011;8528;49.976;11.858;2022-08-19T04:24:38;19.47;;;14.47;;
16822;SDS011;8528;49.976;11.858;2022-08-19T04:27:11;21.33;;;14.47;;
16822;SDS011;8528;49.976;11.858;2022-08-19T04:29:38;21.40;;;16.57;;
16822;SDS011;8528;49.976;11.858;2022-08-19T04:32:05;22.83;;;16.40;;
16822;SDS011;8528;49.976;11.858;2022-08-19T04:34:35;21.33;;;15.30;;
16822;SDS011;8528;49.976;11.858;2022-08-19T04:37:23;20.10;;;14.10;;
16822;SDS011;8528;49.976;11.858;2022-08-19T04:39:50;18.73;;;14.33;;
16822;SDS011;8528;49.976;11.858;2022-08-19T04:42:45;17.07;;;13.33;;
16822;SDS011;8528;49.976;11.858;2022-08-19T04:45:13;16.53;;;13.23;;
16822;SDS011;8528;49.976;11.858;2022-08-19T04:47:43;17.27;;;13.77;;
16822;SDS011;8528;49.976;11.858;2022-08-19T04:50:23;17.27;;;13.33;;
16822;SDS011;8528;49.976;11.858;2022-08-19T04:52:51;16.10;;;13.50;;
16822;SDS011;8528;49.976;11.858;2022-08-19T04:55:19;14.90;;;12.40;;
16822;SDS011;8528;49.976;11.858;2022-08-19T04:57:46;14.97;;;13.00;;
16822;SDS011;8528;49.976;11.858;2022-08-19T05:00:13;16.20;;;12.93;;
16822;SDS011;8528;49.976;11.858;2022-08-19T05:02:43;15.80;;;12.73;;
16822;SDS011;8528;49.976;11.858;2022-08-19T05:05:10;14.00;;;11.73;;
16822;SDS011;8528;49.976;11.858;2022-08-19T05:07:38;13.33;;;11.83;;
16822;SDS011;8528;49.976;11.858;2022-08-19T05:10:07;13.20;;;11.57;;
16822;SDS011;8528;49.976;11.858;2022-08-19T05:12:38;13.50;;;11.70;;
16822;SDS011;8528;49.976;11.858;2022-08-19T05:15:05;13.50;;;11.40;;
16822;SDS011;8528;49.976;11.858;2022-08-19T05:17:37;10.70;;;9.60;;
16822;SDS011;8528;49.976;11.858;2022-08-19T05:20:05;12.17;;;10.87;;
16822;SDS011;8528;49.976;11.858;2022-08-19T05:22:55;13.63;;;10.83;;
16822;SDS011;8528;49.976;11.858;2022-08-19T05:25:22;14.53;;;11.60;;
16822;SDS011;8528;49.976;11.858;2022-08-19T05:27:51;13.13;;;11.00;;
16822;SDS011;8528;49.976;11.858;2022-08-19T05:30:18;12.77;;;10.77;;
16822;SDS011;8528;49.976;11.858;2022-08-19T05:33:11;13.80;;;11.23;;
16822;SDS011;8528;49.976;11.858;2022-08-19T05:35:41;11.70;;;10.50;;
16822;SDS011;8528;49.976;11.858;2022-08-19T05:38:12;12.70;;;11.40;;
16822;SDS011;8528;49.976;11.858;2022-08-19T05:40:39;13.40;;;11.80;;
16822;SDS011;8528;49.976;11.858;2022-08-19T05:43:09;11.30;;;10.10;;
16822;SDS011;8528;49.976;11.858;2022-08-19T05:45:38;14.77;;;12.40;;
16822;SDS011;8528;49.976;11.858;2022-08-19T05:48:06;15.40;;;12.73;;
16822;SDS011;8528;49.976;11.858;2022-08-19T05:50:32;13.30;;;11.00;;
16822;SDS011;8528;49.976;11.858;2022-08-19T05:53:02;15.43;;;12.77;;
16822;SDS011;8528;49.976;11.858;2022-08-19T05:55:32;15.20;;;12.17;;
16822;SDS011;8528;49.976;11.858;2022-08-19T05:57:59;14.67;;;12.20;;
16822;SDS011;8528;49.976;11.858;2022-08-19T06:00:27;17.20;;;12.60;;
16822;SDS011;8528;49.976;11.858;2022-08-19T06:02:56;15.37;;;13.30;;
16822;SDS011;8528;49.976;11.858;2022-08-19T06:05:40;14.77;;;12.00;;
16822;SDS011;8528;49.976;11.858;2022-08-19T06:08:17;14.63;;;12.77;;
16822;SDS011;8528;49.976;11.858;2022-08-19T06:10:44;15.23;;;12.57;;
16822;SDS011;8528;49.976;11.858;2022-08-19T06:13:19;17.23;;;12.83;;
16822;SDS011;8528;49.976;11.858;2022-08-19T06:15:49;17.03;;;12.73;;
16822;SDS011;8528;49.976;11.858;2022-08-19T06:18:17;15.07;;;12.07;;
16822;SDS011;8528;49.976;11.858;2022-08-19T06:20:43;16.50;;;12.57;;
16822;SDS011;8528;49.976;11.858;2022-08-19T06:23:21;13.10;;;11.53;;
16822;SDS011;8528;49.976;11.858;2022-08-19T06:25:49;15.50;;;12.33;;
16822;SDS011;8528;49.976;11.858;2022-08-19T06:28:16;14.13;;;12.27;;
16822;SDS011;8528;49.976;11.858;2022-08-19T06:30:44;14.27;;;12.07;;
16822;SDS011;8528;49.976;11.858;2022-08-19T06:33:14;12.20;;;11.00;;
16822;SDS011;8528;49.976;11.858;2022-08-19T06:35:41;14.77;;;11.37;;
16822;SDS011;8528;49.976;11.858;2022-08-19T06:38:08;12.80;;;11.07;;
16822;SDS011;8528;49.976;11.858;2022-08-19T06:40:38;13.97;;;11.73;;
16822;SDS011;8528;49.976;11.858;2022-08-19T06:43:06;15.80;;;14.20;;
16822;SDS011;8528;49.976;11.858;2022-08-19T06:45:36;12.70;;;11.13;;
16822;SDS011;8528;49.976;11.858;2022-08-19T06:48:07;13.00;;;10.67;;
16822;SDS011;8528;49.976;11.858;2022-08-19T06:50:38;12.30;;;11.10;;
16822;SDS011;8528;49.976;11.858;2022-08-19T06:53:06;12.53;;;10.73;;
16822;SDS011;8528;49.976;11.858;2022-08-19T06:55:33;15.10;;;11.30;;
16822;SDS011;8528;49.976;11.858;2022-08-19T06:58:04;13.80;;;11.30;;
16822;SDS011;8528;49.976;11.858;2022-08-19T07:00:31;11.60;;;9.87;;
16822;SDS011;8528;49.976;11.858;2022-08-19T07:03:00;10.67;;;9.60;;
16822;SDS011;8528;49.976;11.858;2022-08-19T07:05:37;9.77;;;8.73;;
16822;SDS011;8528;49.976;11.858;2022-08-19T07:08:12;9.70;;;8.67;;
16822;SDS011;8528;49.976;11.858;2022-08-19T07:10:44;10.73;;;8.70;;
16822;SDS011;8528;49.976;11.858;2022-08-19T07:13:12;14.50;;;9.77;;
16822;SDS011;8528;49.976;11.858;2022-08-19T07:15:39;12.47;;;8.97;;
16822;SDS011;8528;49.976;11.858;2022-08-19T07:18:06;9.10;;;8.20;;
16822;SDS011;8528;49.976;11.858;2022-08-19T07:20:37;9.33;;;7.80;;
16822;SDS011;8528;49.976;11.858;2022-08-19T07:23:07;17.80;;;8.77;;
16822;SDS011;8528;49.976;11.858;2022-08-19T07:25:35;13.83;;;8.27;;
16822;SDS011;8528;49.976;11.858;2022-08-19T07:28:03;15.37;;;8.10;;
16822;SDS011;8528;49.976;11.858;2022-08-19T07:30:30;12.97;;;7.97;;
16822;SDS011;8528;49.976;11.858;2022-08-19T07:33:00;11.10;;;7.63;;
16822;SDS011;8528;49.976;11.858;2022-08-19T07:35:28;15.03;;;7.67;;
16822;SDS011;8528;49.976;11.858;2022-08-19T07:38:00;8.17;;;7.03;;
16822;SDS011;8528;49.976;11.858;2022-08-19T07:40:29;12.50;;;6.63;;
16822;SDS011;8528;49.976;11.858;2022-08-19T07:42:58;6.50;;;5.73;;
16822;SDS011;8528;49.976;11.858;2022-08-19T07:45:25;7.03;;;6.33;;
16822;SDS011;8528;49.976;11.858;2022-08-19T07:47:53;8.43;;;6.30;;
16822;SDS011;8528;49.976;11.858;2022-08-19T07:50:21;7.07;;;5.50;;
16822;SDS011;8528;49.976;11.858;2022-08-19T07:52:55;6.87;;;6.13;;
16822;SDS011;8528;49.976;11.858;2022-08-19T07:55:26;6.33;;;5.60;;
16822;SDS011;8528;49.976;11.858;2022-08-19T07:58:09;7.47;;;6.77;;
16822;SDS011;8528;49.976;11.858;2022-08-19T08:00:41;7.30;;;6.60;;
16822;SDS011;8528;49.976;11.858;2022-08-19T08:03:09;6.53;;;5.93;;
16822;SDS011;8528;49.976;11.858;2022-08-19T08:05:37;6.53;;;5.93;;
16822;SDS011;8528;49.976;11.858;2022-08-19T08:08:24;5.90;;;5.40;;
16822;SDS011;8528;49.976;11.858;2022-08-19T08:11:18;7.93;;;6.97;;
16822;SDS011;8528;49.976;11.858;2022-08-19T08:13:49;7.47;;;6.57;;
16822;SDS011;8528;49.976;11.858;2022-08-19T08:16:29;6.47;;;5.87;;
16822;SDS011;8528;49.976;11.858;2022-08-19T08:18:57;6.47;;;5.87;;
16822;SDS011;8528;49.976;11.858;2022-08-19T08:21:24;7.93;;;6.40;;
16822;SDS011;8528;49.976;11.858;2022-08-19T08:23:57;8.27;;;7.47;;
16822;SDS011;8528;49.976;11.858;2022-08-19T08:26:30;9.23;;;8.20;;
16822;SDS011;8528;49.976;11.858;2022-08-19T08:28:59;9.90;;;8.77;;
16822;SDS011;8528;49.976;11.858;2022-08-19T08:31:37;9.67;;;8.67;;
16822;SDS011;8528;49.976;11.858;2022-08-19T08:34:07;10.37;;;8.63;;
16822;SDS011;8528;49.976;11.858;2022-08-19T08:36:38;10.80;;;8.53;;
16822;SDS011;8528;49.976;11.858;2022-08-19T08:39:08;8.77;;;7.90;;
16822;SDS011;8528;49.976;11.858;2022-08-19T08:44:28;8.77;;;7.97;;
16822;SDS011;8528;49.976;11.858;2022-08-19T08:47:09;9.03;;;8.13;;
16822;SDS011;8528;49.976;11.858;2022-08-19T08:49:59;16.03;;;12.87;;
16822;SDS011;8528;49.976;11.858;2022-08-19T08:52:32;10.03;;;9.03;;
16822;SDS011;8528;49.976;11.858;2022-08-19T08:55:06;14.63;;;12.87;;
16822;SDS011;8528;49.976;11.858;2022-08-19T09:00:16;9.70;;;8.70;;
16822;SDS011;8528;49.976;11.858;2022-08-19T09:02:52;8.40;;;7.50;;
16822;SDS011;8528;49.976;11.858;2022-08-19T09:05:20;9.50;;;8.60;;
16822;SDS011;8528;49.976;11.858;2022-08-19T09:08:07;9.53;;;8.63;;
16822;SDS011;8528;49.976;11.858;2022-08-19T09:10:47;11.13;;;10.03;;
16822;SDS011;8528;49.976;11.858;2022-08-19T09:16:17;10.87;;;9.73;;
16822;SDS011;8528;49.976;11.858;2022-08-19T09:18:54;10.83;;;9.70;;
16822;SDS011;8528;49.976;11.858;2022-08-19T09:21:25;10.53;;;9.43;;
16822;SDS011;8528;49.976;11.858;2022-08-19T09:24:02;11.23;;;10.10;;
16822;SDS011;8528;49.976;11.858;2022-08-19T09:26:31;11.90;;;10.70;;
16822;SDS011;8528;49.976;11.858;2022-08-19T09:29:17;14.27;;;11.70;;
16822;SDS011;8528;49.976;11.858;2022-08-19T09:31:48;14.20;;;12.73;;
16822;SDS011;8528;49.976;11.858;2022-08-19T09:34:19;19.73;;;15.57;;
16822;SDS011;8528;49.976;11.858;2022-08-19T09:36:47;19.17;;;16.30;;
16822;SDS011;8528;49.976;11.858;2022-08-19T09:39:22;18.60;;;15.70;;
16822;SDS011;8528;49.976;11.858;2022-08-19T09:41:49;22.63;;;17.57;;
16822;SDS011;8528;49.976;11.858;2022-08-19T09:44:16;20.57;;;16.87;;
16822;SDS011;8528;49.976;11.858;2022-08-19T09:46:44;22.53;;;17.37;;
16822;SDS011;8528;49.976;11.858;2022-08-19T09:49:13;22.13;;;16.30;;
16822;SDS011;8528;49.976;11.858;2022-08-19T09:51:44;20.40;;;16.80;;
16822;SDS011;8528;49.976;11.858;2022-08-19T09:54:16;19.70;;;15.73;;
16822;SDS011;8528;49.976;11.858;2022-08-19T09:56:50;20.27;;;16.50;;
16822;SDS011;8528;49.976;11.858;2022-08-19T09:59:17;20.13;;;16.67;;
16822;SDS011;8528;49.976;11.858;2022-08-19T10:01:44;22.43;;;17.67;;
16822;SDS011;8528;49.976;11.858;2022-08-19T10:04:14;23.10;;;18.30;;
16822;SDS011;8528;49.976;11.858;2022-08-19T10:06:50;22.87;;;18.17;;
16822;SDS011;8528;49.976;11.858;2022-08-19T10:09:19;21.70;;;17.23;;
16822;SDS011;8528;49.976;11.858;2022-08-19T10:11:59;22.23;;;17.37;;
16822;SDS011;8528;49.976;11.858;2022-08-19T10:14:27;22.83;;;17.77;;
16822;SDS011;8528;49.976;11.858;2022-08-19T10:16:55;22.80;;;18.33;;
16822;SDS011;8528;49.976;11.858;2022-08-19T10:19:24;21.47;;;17.57;;
16822;SDS011;8528;49.976;11.858;2022-08-19T10:21:52;23.40;;;18.57;;
16822;SDS011;8528;49.976;11.858;2022-08-19T10:24:28;24.17;;;19.20;;
16822;SDS011;8528;49.976;11.858;2022-08-19T10:27:00;24.93;;;20.40;;
16822;SDS011;8528;49.976;11.858;2022-08-19T10:29:34;24.57;;;19.77;;
16822;SDS011;8528;49.976;11.858;2022-08-19T10:32:01;26.10;;;20.70;;
16822;SDS011;8528;49.976;11.858;2022-08-19T10:34:38;28.80;;;23.00;;
16822;SDS011;8528;49.976;11.858;2022-08-19T10:37:14;26.63;;;21.00;;
16822;SDS011;8528;49.976;11.858;2022-08-19T10:39:56;27.03;;;20.70;;
16822;SDS011;8528;49.976;11.858;2022-08-19T10:42:24;23.27;;;19.37;;
16822;SDS011;8528;49.976;11.858;2022-08-19T10:44:53;22.17;;;17.73;;
16822;SDS011;8528;49.976;11.858;2022-08-19T10:47:20;21.77;;;18.47;;
16822;SDS011;8528;49.976;11.858;2022-08-19T10:49:51;25.40;;;20.37;;
16822;SDS011;8528;49.976;11.858;2022-08-19T10:52:42;25.90;;;20.00;;
16822;SDS011;8528;49.976;11.858;2022-08-19T10:55:15;22.03;;;18.50;;
16822;SDS011;8528;49.976;11.858;2022-08-19T10:58:02;22.93;;;18.70;;
16822;SDS011;8528;49.976;11.858;2022-08-19T11:00:33;25.50;;;18.93;;
16822;SDS011;8528;49.976;11.858;2022-08-19T11:02:59;21.63;;;17.33;;
16822;SDS011;8528;49.976;11.858;2022-08-19T11:05:26;19.13;;;16.57;;
16822;SDS011;8528;49.976;11.858;2022-08-19T11:08:04;19.83;;;16.97;;
16822;SDS011;8528;49.976;11.858;2022-08-19T11:10:48;18.80;;;16.53;;
16822;SDS011;8528;49.976;11.858;2022-08-19T11:13:16;20.60;;;16.03;;
16822;SDS011;8528;49.976;11.858;2022-08-19T11:15:43;18.30;;;16.40;;
16822;SDS011;8528;49.976;11.858;2022-08-19T11:18:12;19.37;;;15.27;;
16822;SDS011;8528;49.976;11.858;2022-08-19T11:20:40;20.37;;;15.13;;
16822;SDS011;8528;49.976;11.858;2022-08-19T11:23:13;17.87;;;14.53;;
16822;SDS011;8528;49.976;11.858;2022-08-19T11:25:40;17.40;;;14.63;;
16822;SDS011;8528;49.976;11.858;2022-08-19T11:28:08;15.77;;;14.07;;
16822;SDS011;8528;49.976;11.858;2022-08-19T11:30:36;17.77;;;14.67;;
16822;SDS011;8528;49.976;11.858;2022-08-19T11:33:07;17.93;;;14.97;;
16822;SDS011;8528;49.976;11.858;2022-08-19T11:35:33;17.23;;;14.57;;
16822;SDS011;8528;49.976;11.858;2022-08-19T11:38:08;16.67;;;13.67;;
16822;SDS011;8528;49.976;11.858;2022-08-19T11:40:35;15.87;;;13.53;;
16822;SDS011;8528;49.976;11.858;2022-08-19T11:43:02;15.37;;;13.20;;
16822;SDS011;8528;49.976;11.858;2022-08-19T11:45:29;15.83;;;14.03;;
16822;SDS011;8528;49.976;11.858;2022-08-19T11:47:56;15.53;;;13.47;;
16822;SDS011;8528;49.976;11.858;2022-08-19T11:50:24;14.33;;;12.60;;
16822;SDS011;8528;49.976;11.858;2022-08-19T11:52:55;13.63;;;11.43;;
16822;SDS011;8528;49.976;11.858;2022-08-19T11:55:22;13.67;;;11.87;;
16822;SDS011;8528;49.976;11.858;2022-08-19T11:57:53;13.47;;;11.93;;
16822;SDS011;8528;49.976;11.858;2022-08-19T12:00:20;15.43;;;13.10;;
16822;SDS011;8528;49.976;11.858;2022-08-19T12:02:47;15.47;;;12.43;;
16822;SDS011;8528;49.976;11.858;2022-08-19T12:05:14;16.27;;;13.17;;
16822;SDS011;8528;49.976;11.858;2022-08-19T12:07:41;17.70;;;13.90;;
16822;SDS011;8528;49.976;11.858;2022-08-19T12:10:09;17.57;;;13.27;;
16822;SDS011;8528;49.976;11.858;2022-08-19T12:12:37;18.40;;;13.20;;
16822;SDS011;8528;49.976;11.858;2022-08-19T12:15:09;20.57;;;14.13;;
16822;SDS011;8528;49.976;11.858;2022-08-19T12:17:40;19.13;;;14.03;;
16822;SDS011;8528;49.976;11.858;2022-08-19T12:20:10;17.10;;;12.97;;
16822;SDS011;8528;49.976;11.858;2022-08-19T12:22:40;17.60;;;13.90;;
16822;SDS011;8528;49.976;11.858;2022-08-19T12:25:10;20.10;;;14.97;;
16822;SDS011;8528;49.976;11.858;2022-08-19T12:27:38;18.43;;;13.63;;
16822;SDS011;8528;49.976;11.858;2022-08-19T12:30:10;18.53;;;13.67;;
16822;SDS011;8528;49.976;11.858;2022-08-19T12:32:39;19.07;;;13.73;;
16822;SDS011;8528;49.976;11.858;2022-08-19T12:35:06;16.13;;;12.83;;
16822;SDS011;8528;49.976;11.858;2022-08-19T12:37:35;16.53;;;12.73;;
16822;SDS011;8528;49.976;11.858;2022-08-19T12:40:04;16.80;;;13.20;;
16822;SDS011;8528;49.976;11.858;2022-08-19T12:42:32;15.53;;;12.80;;
16822;SDS011;8528;49.976;11.858;2022-08-19T12:45:01;16.57;;;12.17;;
16822;SDS011;8528;49.976;11.858;2022-08-19T12:47:31;17.10;;;11.50;;
16822;SDS011;8528;49.976;11.858;2022-08-19T12:50:02;15.20;;;13.47;;
16822;SDS011;8528;49.976;11.858;2022-08-19T12:52:33;10.87;;;9.37;;
16822;SDS011;8528;49.976;11.858;2022-08-19T12:55:01;18.83;;;15.87;;
16822;SDS011;8528;49.976;11.858;2022-08-19T12:57:28;11.07;;;8.70;;
16822;SDS011;8528;49.976;11.858;2022-08-19T13:00:06;7.17;;;6.37;;
16822;SDS011;8528;49.976;11.858;2022-08-19T13:02:40;8.80;;;7.23;;
16822;SDS011;8528;49.976;11.858;2022-08-19T13:05:11;8.47;;;6.43;;
16822;SDS011;8528;49.976;11.858;2022-08-19T13:07:46;6.70;;;6.00;;
16822;SDS011;8528;49.976;11.858;2022-08-19T13:10:18;3.77;;;3.47;;
16822;SDS011;8528;49.976;11.858;2022-08-19T13:12:46;5.33;;;4.30;;
16822;SDS011;8528;49.976;11.858;2022-08-19T13:15:15;5.47;;;4.87;;
16822;SDS011;8528;49.976;11.858;2022-08-19T13:17:49;6.03;;;4.97;;
16822;SDS011;8528;49.976;11.858;2022-08-19T13:20:19;7.87;;;5.40;;
16822;SDS011;8528;49.976;11.858;2022-08-19T13:22:47;7.30;;;5.97;;
16822;SDS011;8528;49.976;11.858;2022-08-19T13:25:15;6.83;;;5.83;;
16822;SDS011;8528;49.976;11.858;2022-08-19T13:27:48;9.17;;;6.90;;
16822;SDS011;8528;49.976;11.858;2022-08-19T13:30:17;10.03;;;7.53;;
16822;SDS011;8528;49.976;11.858;2022-08-19T13:33:05;9.33;;;6.97;;
16822;SDS011;8528;49.976;11.858;2022-08-19T13:35:46;8.33;;;7.07;;
16822;SDS011;8528;49.976;11.858;2022-08-19T13:38:17;8.97;;;6.97;;
16822;SDS011;8528;49.976;11.858;2022-08-19T13:40:46;7.70;;;6.83;;
16822;SDS011;8528;49.976;11.858;2022-08-19T13:43:16;10.37;;;8.00;;
16822;SDS011;8528;49.976;11.858;2022-08-19T13:45:49;9.10;;;8.20;;
16822;SDS011;8528;49.976;11.858;2022-08-19T13:48:18;8.70;;;7.80;;
16822;SDS011;8528;49.976;11.858;2022-08-19T13:50:48;8.67;;;7.77;;
16822;SDS011;8528;49.976;11.858;2022-08-19T13:53:16;10.73;;;7.67;;
16822;SDS011;8528;49.976;11.858;2022-08-19T13:55:47;9.93;;;8.10;;
16822;SDS011;8528;49.976;11.858;2022-08-19T13:58:17;8.43;;;7.53;;
16822;SDS011;8528;49.976;11.858;2022-08-19T14:00:46;8.33;;;7.53;;
16822;SDS011;8528;49.976;11.858;2022-08-19T14:03:16;8.37;;;7.57;;
16822;SDS011;8528;49.976;11.858;2022-08-19T14:05:43;11.70;;;8.20;;
16822;SDS011;8528;49.976;11.858;2022-08-19T14:08:10;9.00;;;8.10;;
16822;SDS011;8528;49.976;11.858;2022-08-19T14:10:38;9.00;;;8.10;;
16822;SDS011;8528;49.976;11.858;2022-08-19T14:13:05;13.13;;;10.90;;
16822;SDS011;8528;49.976;11.858;2022-08-19T14:15:35;11.10;;;9.93;;
16822;SDS011;8528;49.976;11.858;2022-08-19T14:18:03;11.10;;;10.00;;
16822;SDS011;8528;49.976;11.858;2022-08-19T14:20:38;10.97;;;9.90;;
16822;SDS011;8528;49.976;11.858;2022-08-19T14:23:10;10.50;;;9.13;;
16822;SDS011;8528;49.976;11.858;2022-08-19T14:25:40;10.67;;;9.60;;
16822;SDS011;8528;49.976;11.858;2022-08-19T14:28:07;8.73;;;7.87;;
16822;SDS011;8528;49.976;11.858;2022-08-19T14:30:35;9.17;;;8.23;;
16822;SDS011;8528;49.976;11.858;2022-08-19T14:33:07;8.67;;;7.80;;
16822;SDS011;8528;49.976;11.858;2022-08-19T14:35:35;10.33;;;9.23;;
16822;SDS011;8528;49.976;11.858;2022-08-19T14:38:05;9.93;;;8.80;;
16822;SDS011;8528;49.976;11.858;2022-08-19T14:40:42;9.17;;;8.27;;
16822;SDS011;8528;49.976;11.858;2022-08-19T14:43:09;9.77;;;8.77;;
16822;SDS011;8528;49.976;11.858;2022-08-19T14:45:36;9.03;;;8.23;;
16822;SDS011;8528;49.976;11.858;2022-08-19T14:48:06;9.77;;;8.77;;
16822;SDS011;8528;49.976;11.858;2022-08-19T14:50:44;8.00;;;7.20;;
16822;SDS011;8528;49.976;11.858;2022-08-19T14:53:15;9.00;;;8.20;;
16822;SDS011;8528;49.976;11.858;2022-08-19T14:55:42;8.50;;;7.70;;
16822;SDS011;8528;49.976;11.858;2022-08-19T14:58:11;9.90;;;8.90;;
16822;SDS011;8528;49.976;11.858;2022-08-19T15:00:55;9.43;;;8.53;;